Time;durP1;ratioP1;P1;durP2;ratioP2;P2;SDS_P1;SDS_P2;PMS_P1;PMS_P2;Temp;Humidity;BMP_temperature;BMP_pressure;BME280_temperature;BME280_humidity;BME280_pressure;Samples;Min_cycle;Max_cycle;Signal;HPM_P1;HPM_P2
2023/01/04 00:01:04;;;;;;;8.60;2.40;;;10.00;99.90;;;;;;5011777;28;20029;-72
2023/01/04 00:03:30;;;;;;;8.23;2.75;;;10.00;99.90;;;;;;5008406;28;20076;-73
2023/01/04 00:06:02;;;;;;;4.68;1.65;;;10.00;99.90;;;;;;5007791;28;20026;-72
2023/01/04 00:08:28;;;;;;;6.30;2.60;;;9.90;99.90;;;;;;5005484;28;20033;-72
2023/01/04 00:11:07;;;;;;;10.18;2.47;;;10.00;99.90;;;;;;5008589;28;20038;-72
2023/01/04 00:13:33;;;;;;;10.73;2.42;;;10.00;99.90;;;;;;5002254;28;20057;-71
2023/01/04 00:16:03;;;;;;;9.68;2.65;;;10.00;99.90;;;;;;5008762;28;20034;-71
2023/01/04 00:18:30;;;;;;;6.22;2.97;;;10.00;99.90;;;;;;5004749;28;20026;-72
2023/01/04 00:21:10;;;;;;;4.60;2.17;;;10.00;99.90;;;;;;4990953;28;20024;-72
2023/01/04 00:23:40;;;;;;;8.50;2.88;;;10.00;99.90;;;;;;5009831;28;20042;-72
2023/01/04 00:26:10;;;;;;;9.60;2.10;;;10.00;99.90;;;;;;5009338;28;20034;-72
2023/01/04 00:28:37;;;;;;;13.88;2.58;;;10.10;99.90;;;;;;5006584;28;20037;-72
2023/01/04 00:31:08;;;;;;;7.57;2.60;;;10.00;99.90;;;;;;5005581;28;20022;-72
2023/01/04 00:33:33;;;;;;;7.47;2.53;;;10.00;99.90;;;;;;5009045;28;20059;-72
2023/01/04 00:36:07;;;;;;;6.38;2.38;;;10.00;99.90;;;;;;5007176;28;20099;-72
2023/01/04 00:38:34;;;;;;;7.25;2.35;;;10.10;99.90;;;;;;5002708;28;20437;-73
2023/01/04 00:41:01;;;;;;;7.13;2.55;;;10.00;99.90;;;;;;5009649;28;20111;-72
2023/01/04 00:43:27;;;;;;;9.68;2.20;;;10.00;99.90;;;;;;5005753;28;20469;-72
2023/01/04 00:45:53;;;;;;;8.32;2.65;;;10.00;99.90;;;;;;5012807;28;20117;-72
2023/01/04 00:48:19;;;;;;;7.18;3.22;;;10.00;99.90;;;;;;4987021;28;20040;-72
2023/01/04 00:50:45;;;;;;;11.82;3.13;;;10.00;99.90;;;;;;4990824;28;20064;-72
2023/01/04 00:53:12;;;;;;;9.20;2.08;;;10.10;99.90;;;;;;5010400;28;20040;-71
2023/01/04 00:55:37;;;;;;;10.13;3.17;;;10.00;99.90;;;;;;5005576;28;20029;-71
2023/01/04 00:58:03;;;;;;;9.25;2.83;;;10.10;99.90;;;;;;4986034;28;20026;-72
2023/01/04 01:00:29;;;;;;;8.85;2.75;;;10.00;99.90;;;;;;5007444;28;20029;-72
2023/01/04 01:02:55;;;;;;;9.80;2.47;;;10.00;99.90;;;;;;4991683;28;20106;-72
2023/01/04 01:05:20;;;;;;;4.47;2.15;;;9.90;99.90;;;;;;5007369;28;20029;-72
2023/01/04 01:07:46;;;;;;;12.18;3.17;;;9.90;99.90;;;;;;5001103;28;20390;-71
2023/01/04 01:10:11;;;;;;;12.50;2.88;;;10.00;99.90;;;;;;5004397;28;20033;-72
2023/01/04 01:12:37;;;;;;;6.80;2.33;;;10.00;99.90;;;;;;5008973;28;20061;-73
2023/01/04 01:15:03;;;;;;;10.30;3.45;;;10.00;99.90;;;;;;5010495;28;20029;-72
2023/01/04 01:17:29;;;;;;;4.45;2.17;;;10.10;99.90;;;;;;5015899;28;20033;-72
2023/01/04 01:19:54;;;;;;;4.97;2.30;;;10.10;99.90;;;;;;5002061;28;20061;-71
2023/01/04 01:22:23;;;;;;;5.63;2.58;;;10.00;99.90;;;;;;5000315;28;20128;-72
2023/01/04 01:24:51;;;;;;;5.75;2.67;;;10.10;99.90;;;;;;5007525;28;20042;-72
2023/01/04 01:27:17;;;;;;;6.72;2.42;;;10.10;99.90;;;;;;5003483;28;20022;-72
2023/01/04 01:29:43;;;;;;;7.70;2.58;;;10.10;99.90;;;;;;5005848;28;20018;-71
2023/01/04 01:32:08;;;;;;;8.15;2.25;;;10.10;99.90;;;;;;5008051;28;20048;-71
2023/01/04 01:34:34;;;;;;;4.85;1.98;;;10.10;99.90;;;;;;4997576;28;20033;-71
2023/01/04 01:37:02;;;;;;;10.95;2.60;;;10.10;99.90;;;;;;5004009;28;20030;-72
2023/01/04 01:39:28;;;;;;;5.15;2.13;;;10.10;99.90;;;;;;4995767;28;20029;-72
2023/01/04 01:41:54;;;;;;;6.13;2.00;;;10.20;99.90;;;;;;5006488;28;20030;-72
2023/01/04 01:44:41;;;;;;;4.95;2.55;;;10.10;99.90;;;;;;5005157;28;20121;-72
2023/01/04 01:47:18;;;;;;;7.22;2.33;;;10.20;99.90;;;;;;5003944;28;20101;-72
2023/01/04 01:49:50;;;;;;;3.42;1.88;;;10.10;99.90;;;;;;4998739;28;20022;-73
2023/01/04 01:52:21;;;;;;;5.85;1.92;;;10.20;99.90;;;;;;5005808;28;20029;-73
2023/01/04 01:54:54;;;;;;;6.82;2.33;;;10.20;99.90;;;;;;4982703;28;20041;-73
2023/01/04 01:57:21;;;;;;;;;;;10.30;99.90;;;;;;5007455;28;20130;-72
2023/01/04 01:59:51;;;;;;;8.57;2.25;;;10.30;99.90;;;;;;4998259;28;20372;-73
2023/01/04 02:02:17;;;;;;;5.00;1.77;;;10.30;99.90;;;;;;5019018;28;20478;-72
2023/01/04 02:04:47;;;;;;;6.70;1.85;;;10.30;99.90;;;;;;5007954;28;20092;-73
2023/01/04 02:07:16;;;;;;;5.88;2.05;;;10.30;99.90;;;;;;4988390;28;20022;-73
2023/01/04 02:09:43;;;;;;;5.25;2.15;;;10.30;99.90;;;;;;5007120;28;20022;-73
2023/01/04 02:12:12;;;;;;;6.05;2.10;;;10.30;99.90;;;;;;5002419;28;20038;-73
2023/01/04 02:14:41;;;;;;;4.50;1.90;;;10.30;99.90;;;;;;4998792;28;20030;-73
2023/01/04 02:17:21;;;;;;;4.15;1.58;;;10.30;99.90;;;;;;5002595;28;20482;-73
2023/01/04 02:20:02;;;;;;;3.58;1.55;;;10.30;99.90;;;;;;5002446;28;20022;-73
2023/01/04 02:22:49;;;;;;;5.60;1.50;;;10.30;99.90;;;;;;5000945;28;20022;-73
2023/01/04 02:25:38;;;;;;;2.65;1.27;;;10.30;99.90;;;;;;5003425;28;20065;-73
2023/01/04 02:28:46;;;;;;;1.40;1.20;;;10.40;99.90;;;;;;4959551;28;20030;-73
2023/01/04 02:31:38;;;;;;;2.70;1.17;;;10.50;99.90;;;;;;4998297;28;20029;-73
2023/01/04 02:34:30;;;;;;;2.38;1.00;;;10.50;99.90;;;;;;4980847;28;20023;-74
2023/01/04 02:37:07;;;;;;;4.50;1.00;;;10.50;99.90;;;;;;5008508;28;20072;-73
2023/01/04 02:39:47;;;;;;;2.13;0.85;;;10.50;99.90;;;;;;4990663;28;20027;-72
2023/01/04 02:45:23;;;;;;;1.55;0.70;;;10.50;99.90;;;;;;5007192;28;20056;-71
2023/01/04 02:50:38;;;;;;;3.17;1.15;;;10.50;99.90;;;;;;5006595;28;20049;-72
2023/01/04 02:53:12;;;;;;;1.33;0.95;;;10.60;99.90;;;;;;4990384;28;20026;-72
2023/01/04 02:56:01;;;;;;;1.83;1.00;;;10.60;99.90;;;;;;4995369;28;20030;-72
2023/01/04 02:58:37;;;;;;;1.50;1.17;;;10.50;99.90;;;;;;5005093;28;20827;-72
2023/01/04 03:07:45;;;;;;;3.00;0.90;;;10.60;99.90;;;;;;4999644;28;20049;-72
2023/01/04 03:10:22;;;;;;;1.45;1.10;;;10.50;99.90;;;;;;5000476;28;20153;-72
2023/01/04 03:12:56;;;;;;;1.23;1.00;;;10.50;99.90;;;;;;4989879;28;20045;-73
2023/01/04 03:15:27;;;;;;;0.70;0.70;;;10.50;99.90;;;;;;5000629;28;20129;-73
2023/01/04 03:17:57;;;;;;;2.25;1.10;;;10.60;99.90;;;;;;5006255;28;20023;-73
2023/01/04 03:20:26;;;;;;;2.85;1.50;;;10.60;99.90;;;;;;4992434;28;20105;-73
2023/01/04 03:37:28;;;;;;;2.45;1.35;;;10.60;99.90;;;;;;5005847;28;20049;-73
2023/01/04 03:49:14;;;;;;;1.90;1.30;;;10.70;99.90;;;;;;5013395;28;20033;-74
2023/01/04 03:51:41;;;;;;;3.60;1.58;;;10.70;99.90;;;;;;5021000;28;20024;-73
2023/01/04 03:54:13;;;;;;;1.77;1.40;;;10.70;99.90;;;;;;4982740;28;20026;-72
2023/01/04 03:56:41;;;;;;;1.63;1.33;;;10.70;99.90;;;;;;5000173;28;20028;-71
2023/01/04 03:59:09;;;;;;;1.40;1.27;;;10.70;99.90;;;;;;5008063;28;20040;-71
2023/01/04 04:01:35;;;;;;;1.35;1.25;;;10.70;99.90;;;;;;5006479;28;20474;-71
2023/01/04 04:09:29;;;;;;;1.63;1.48;;;10.70;99.90;;;;;;5004377;28;20044;-72
2023/01/04 04:11:55;;;;;;;1.98;1.83;;;10.80;99.90;;;;;;5008182;28;20389;-73
2023/01/04 04:14:21;;;;;;;1.70;1.60;;;10.80;99.90;;;;;;5005792;28;20041;-73
2023/01/04 04:16:46;;;;;;;2.72;1.80;;;10.80;99.90;;;;;;5007534;28;20271;-73
2023/01/04 04:19:12;;;;;;;3.00;2.20;;;10.80;99.90;;;;;;5003972;28;20038;-73
2023/01/04 04:21:38;;;;;;;5.25;1.75;;;10.80;99.90;;;;;;5004033;28;20496;-74
2023/01/04 04:24:04;;;;;;;5.20;2.30;;;10.80;99.90;;;;;;4987885;28;20081;-74
2023/01/04 04:26:30;;;;;;;3.42;2.63;;;10.80;99.90;;;;;;5007639;28;20030;-73
2023/01/04 04:28:55;;;;;;;4.00;2.03;;;10.80;99.90;;;;;;5001614;28;20033;-73
2023/01/04 04:31:21;;;;;;;3.15;2.28;;;10.90;99.90;;;;;;5004291;28;20476;-74
2023/01/04 04:33:47;;;;;;;4.80;2.40;;;10.90;99.90;;;;;;5006440;28;20033;-73
2023/01/04 04:36:12;;;;;;;5.13;2.55;;;10.90;99.90;;;;;;5012753;28;20065;-73
2023/01/04 04:38:38;;;;;;;4.60;2.83;;;10.90;99.90;;;;;;5003930;28;20019;-73
2023/01/04 04:43:53;;;;;;;4.53;2.83;;;10.90;99.90;;;;;;5009484;28;20520;-73
2023/01/04 04:46:19;;;;;;;5.55;2.90;;;10.90;99.90;;;;;;5012832;28;20021;-73
2023/01/04 04:48:44;;;;;;;3.45;2.90;;;10.90;99.90;;;;;;4997526;28;20042;-74
2023/01/04 04:51:10;;;;;;;4.15;2.60;;;11.00;99.90;;;;;;5005541;28;20054;-74
2023/01/04 04:53:35;;;;;;;3.25;2.95;;;11.00;99.90;;;;;;5005261;28;20034;-73
2023/01/04 04:56:01;;;;;;;6.55;3.03;;;11.00;99.90;;;;;;5002201;28;20030;-74
2023/01/04 04:58:27;;;;;;;4.88;2.92;;;11.00;99.90;;;;;;5008323;28;20485;-74
2023/01/04 05:00:52;;;;;;;4.78;2.72;;;11.00;99.90;;;;;;5003237;28;20045;-74
2023/01/04 05:03:18;;;;;;;4.88;2.92;;;11.00;99.90;;;;;;5006623;28;20026;-74
2023/01/04 05:05:43;;;;;;;4.20;2.70;;;11.10;99.90;;;;;;5000310;28;20038;-74
2023/01/04 05:08:09;;;;;;;4.90;2.67;;;11.10;99.90;;;;;;4986372;28;20381;-73
2023/01/04 05:10:36;;;;;;;2.65;2.45;;;11.10;99.90;;;;;;5003011;28;20033;-74
2023/01/04 05:13:04;;;;;;;3.95;2.80;;;11.20;99.90;;;;;;5003738;28;20035;-74
2023/01/04 05:15:36;;;;;;;4.50;3.13;;;11.20;99.90;;;;;;5001376;28;20061;-74
2023/01/04 05:18:03;;;;;;;3.40;2.67;;;11.20;99.90;;;;;;5000337;28;20478;-74
2023/01/04 05:20:29;;;;;;;4.22;3.22;;;11.20;99.90;;;;;;5008294;28;20583;-74
2023/01/04 05:22:54;;;;;;;8.52;3.58;;;11.20;99.90;;;;;;5007351;28;20033;-74
2023/01/04 05:25:20;;;;;;;4.95;3.28;;;11.30;99.90;;;;;;5005587;28;20044;-74
2023/01/04 05:27:46;;;;;;;6.13;2.83;;;11.30;99.90;;;;;;5008129;28;20479;-74
2023/01/04 05:32:58;;;;;;;4.25;3.40;;;11.30;99.90;;;;;;5007905;28;20106;-74
2023/01/04 05:35:23;;;;;;;6.60;3.60;;;11.30;99.90;;;;;;4983283;28;20700;-74
2023/01/04 05:37:49;;;;;;;4.82;3.10;;;11.30;99.90;;;;;;5004800;28;20034;-74
2023/01/04 05:40:15;;;;;;;5.85;3.80;;;11.30;99.90;;;;;;5001055;28;20136;-74
2023/01/04 05:42:41;;;;;;;5.10;3.50;;;11.40;99.90;;;;;;5006465;28;20049;-74
2023/01/04 05:45:07;;;;;;;6.88;3.47;;;11.40;99.90;;;;;;5006681;28;20047;-74
2023/01/04 05:47:33;;;;;;;5.20;3.53;;;11.40;99.90;;;;;;5001602;28;20029;-74
2023/01/04 05:49:58;;;;;;;5.75;3.97;;;11.40;99.90;;;;;;5002916;28;20030;-74
2023/01/04 05:52:24;;;;;;;4.88;3.33;;;11.40;99.90;;;;;;5002428;28;20026;-73
2023/01/04 05:54:50;;;;;;;5.13;3.42;;;11.40;99.90;;;;;;5003969;28;20112;-73
2023/01/04 05:57:16;;;;;;;5.65;3.10;;;11.40;99.90;;;;;;5019316;28;20072;-73
2023/01/04 05:59:41;;;;;;;3.78;2.95;;;11.50;99.90;;;;;;5004512;28;20030;-74
2023/01/04 06:02:13;;;;;;;2.97;2.67;;;11.50;99.90;;;;;;4996774;28;20382;-74
2023/01/04 06:04:39;;;;;;;5.35;3.13;;;11.50;99.90;;;;;;5004159;28;20070;-73
2023/01/04 06:07:05;;;;;;;8.07;3.10;;;11.50;99.90;;;;;;4999781;28;20112;-73
2023/01/04 06:09:30;;;;;;;7.45;2.72;;;11.50;99.90;;;;;;5006296;28;20101;-74
2023/01/04 06:11:56;;;;;;;3.63;2.40;;;11.50;99.90;;;;;;5004797;28;20034;-74
2023/01/04 06:14:22;;;;;;;4.55;2.60;;;11.50;99.90;;;;;;5001585;28;20027;-74
2023/01/04 06:16:47;;;;;;;4.22;2.60;;;11.60;99.90;;;;;;4985206;28;20049;-74
2023/01/04 06:19:13;;;;;;;5.00;2.53;;;11.60;99.90;;;;;;4991325;28;20048;-74
2023/01/04 06:21:38;;;;;;;8.73;3.38;;;11.60;99.90;;;;;;5003156;28;20022;-74
2023/01/04 06:24:04;;;;;;;5.07;2.67;;;11.60;99.90;;;;;;5006125;28;20038;-72
2023/01/04 06:26:30;;;;;;;5.05;2.80;;;11.60;99.90;;;;;;5013517;28;20024;-72
2023/01/04 06:28:55;;;;;;;3.97;3.33;;;11.60;99.90;;;;;;5013104;28;20037;-72
2023/01/04 06:31:21;;;;;;;4.28;3.10;;;11.60;99.90;;;;;;5009283;28;20026;-73
2023/01/04 06:33:46;;;;;;;3.72;3.17;;;11.60;99.90;;;;;;5010098;28;20366;-73
2023/01/04 06:36:12;;;;;;;4.30;3.53;;;11.60;99.90;;;;;;5001547;28;20065;-72
2023/01/04 06:38:38;;;;;;;4.50;3.38;;;11.60;99.90;;;;;;4992367;28;20069;-72
2023/01/04 06:41:03;;;;;;;4.32;3.20;;;11.70;99.90;;;;;;4990041;28;20397;-71
2023/01/04 06:43:29;;;;;;;3.33;3.00;;;11.60;99.90;;;;;;5009022;28;20065;-72
2023/01/04 06:45:55;;;;;;;5.75;3.45;;;11.60;99.90;;;;;;5000660;28;20042;-73
2023/01/04 06:48:20;;;;;;;5.18;2.67;;;11.70;99.90;;;;;;5008325;28;20032;-72
2023/01/04 06:50:46;;;;;;;6.30;3.47;;;11.70;99.90;;;;;;5000732;28;20070;-73
2023/01/04 06:53:11;;;;;;;5.82;3.00;;;11.70;99.90;;;;;;5007461;28;20534;-73
2023/01/04 06:55:37;;;;;;;5.40;3.13;;;11.60;99.90;;;;;;5004459;28;20041;-73
2023/01/04 06:58:03;;;;;;;3.67;2.72;;;11.70;99.90;;;;;;5008822;28;20030;-73
2023/01/04 07:00:28;;;;;;;4.80;2.65;;;11.70;99.90;;;;;;5006262;28;20489;-73
2023/01/04 07:02:54;;;;;;;5.13;2.70;;;11.80;99.90;;;;;;5004649;28;20109;-73
2023/01/04 07:05:19;;;;;;;3.00;2.40;;;11.80;99.90;;;;;;5005851;28;20408;-74
2023/01/04 07:07:45;;;;;;;4.63;2.28;;;11.80;99.90;;;;;;5003998;28;20030;-73
2023/01/04 07:10:11;;;;;;;4.13;2.10;;;11.90;99.90;;;;;;5007647;28;20030;-73
2023/01/04 07:12:37;;;;;;;6.72;2.58;;;11.90;99.90;;;;;;4991256;28;20026;-73
2023/01/04 07:15:04;;;;;;;2.17;1.95;;;11.90;99.90;;;;;;5011694;28;20057;-72
2023/01/04 07:17:29;;;;;;;4.75;2.30;;;11.90;99.90;;;;;;5011633;28;20445;-73
2023/01/04 07:19:55;;;;;;;4.63;1.98;;;12.00;99.90;;;;;;5010605;28;20025;-72
2023/01/04 07:22:20;;;;;;;4.80;2.63;;;11.90;99.90;;;;;;5023237;28;20045;-73
2023/01/04 07:24:46;;;;;;;3.92;2.60;;;11.90;99.90;;;;;;5009222;28;20549;-72
2023/01/04 07:27:12;;;;;;;4.03;2.75;;;11.90;99.90;;;;;;5006247;28;20033;-73
2023/01/04 07:29:37;;;;;;;4.05;2.17;;;11.90;99.90;;;;;;5013372;28;20025;-73
2023/01/04 07:32:03;;;;;;;3.90;2.00;;;12.00;99.90;;;;;;4988066;28;20539;-73
2023/01/04 07:34:30;;;;;;;4.15;2.50;;;11.90;99.90;;;;;;5011757;28;20068;-74
2023/01/04 07:36:56;;;;;;;4.28;2.65;;;11.90;99.90;;;;;;5020606;28;20032;-74
2023/01/04 07:39:22;;;;;;;3.13;2.10;;;11.90;99.90;;;;;;4992153;28;20029;-74
2023/01/04 07:41:48;;;;;;;3.92;2.80;;;11.90;99.90;;;;;;5010268;28;20548;-74
2023/01/04 07:44:14;;;;;;;4.40;2.40;;;11.90;99.90;;;;;;5007637;28;20614;-74
2023/01/04 07:46:41;;;;;;;3.53;1.90;;;11.90;99.90;;;;;;5004610;28;20049;-74
2023/01/04 07:49:12;;;;;;;2.78;1.70;;;11.90;99.90;;;;;;5006986;28;20038;-74
2023/01/04 07:51:37;;;;;;;3.20;2.22;;;11.90;99.90;;;;;;4990447;28;20476;-73
2023/01/04 07:54:03;;;;;;;3.45;1.77;;;11.90;99.90;;;;;;5005790;28;20529;-74
2023/01/04 07:56:29;;;;;;;5.50;2.35;;;12.00;99.90;;;;;;4998156;28;20429;-74
2023/01/04 07:58:56;;;;;;;3.20;1.92;;;12.00;99.90;;;;;;4999326;28;20083;-73
2023/01/04 08:01:23;;;;;;;3.72;2.20;;;12.00;99.90;;;;;;5008056;28;20125;-73
2023/01/04 08:03:50;;;;;;;4.95;2.17;;;12.00;99.90;;;;;;5010820;28;20064;-74
2023/01/04 08:06:16;;;;;;;5.85;2.38;;;12.00;99.90;;;;;;4991972;28;20024;-74
2023/01/04 08:08:42;;;;;;;4.25;2.40;;;12.00;99.90;;;;;;5004515;28;20033;-74
2023/01/04 08:11:14;;;;;;;3.28;2.15;;;12.00;99.90;;;;;;5006283;28;20054;-74
2023/01/04 08:13:40;;;;;;;2.95;1.98;;;12.00;99.90;;;;;;5004939;28;20443;-73
2023/01/04 08:16:07;;;;;;;6.05;2.00;;;12.10;99.90;;;;;;5010111;28;20026;-73
2023/01/04 08:18:33;;;;;;;3.53;1.92;;;12.20;99.90;;;;;;5011138;28;20022;-74
2023/01/04 08:21:08;;;;;;;5.80;1.92;;;12.10;99.90;;;;;;5004290;28;20469;-73
2023/01/04 08:23:35;;;;;;;3.05;2.13;;;12.20;99.90;;;;;;5005714;28;20033;-74
2023/01/04 08:26:10;;;;;;;6.55;1.75;;;12.20;99.90;;;;;;5004856;28;20513;-74
2023/01/04 08:28:37;;;;;;;3.53;1.70;;;12.20;99.90;;;;;;5004743;28;20430;-73
2023/01/04 08:31:06;;;;;;;3.92;1.75;;;12.20;99.90;;;;;;4993028;28;20033;-74
2023/01/04 08:33:32;;;;;;;5.07;2.53;;;12.20;99.90;;;;;;5005782;28;20045;-74
2023/01/04 08:36:18;;;;;;;7.43;1.55;;;12.30;99.90;;;;;;4984060;28;20356;-76
2023/01/04 08:38:44;;;;;;;6.03;1.48;;;12.30;99.90;;;;;;5001105;28;20092;-76
2023/01/04 08:41:10;;;;;;;6.03;1.80;;;12.20;99.90;;;;;;4980768;28;20029;-77
2023/01/04 08:43:35;;;;;;;6.03;1.77;;;12.30;99.90;;;;;;5007521;28;20455;-77
2023/01/04 08:46:03;;;;;;;3.08;1.77;;;12.30;99.90;;;;;;5008973;28;20030;-76
2023/01/04 08:48:28;;;;;;;5.53;2.38;;;12.40;99.90;;;;;;5009623;28;20014;-76
2023/01/04 08:50:58;;;;;;;3.63;1.55;;;12.40;99.90;;;;;;5011177;28;20040;-77
2023/01/04 08:53:23;;;;;;;6.45;1.23;;;12.40;99.90;;;;;;5014878;28;20071;-76
2023/01/04 08:55:50;;;;;;;2.10;1.33;;;12.50;99.90;;;;;;5006226;28;20045;-75
2023/01/04 08:58:16;;;;;;;4.63;1.30;;;12.50;99.90;;;;;;5013178;28;20022;-76
2023/01/04 09:00:42;;;;;;;3.72;1.40;;;12.50;99.90;;;;;;5007209;28;20029;-77
2023/01/04 09:03:07;;;;;;;4.13;1.42;;;12.50;99.90;;;;;;4992374;28;20022;-74
2023/01/04 09:05:33;;;;;;;3.13;1.58;;;12.40;99.90;;;;;;5010079;28;20034;-73
2023/01/04 09:07:59;;;;;;;4.93;1.50;;;12.50;99.90;;;;;;5004362;28;20385;-74
2023/01/04 09:10:25;;;;;;;5.20;1.15;;;12.50;99.90;;;;;;5009644;28;20493;-75
2023/01/04 09:12:51;;;;;;;5.03;1.23;;;12.50;99.90;;;;;;5025228;28;21813;-75
2023/01/04 09:15:17;;;;;;;4.70;1.50;;;12.60;99.90;;;;;;5010335;28;20498;-75
2023/01/04 09:17:43;;;;;;;4.43;1.40;;;12.50;99.90;;;;;;4987675;28;20022;-76
2023/01/04 09:20:09;;;;;;;2.20;1.10;;;12.50;99.90;;;;;;5010093;28;20145;-76
2023/01/04 09:22:34;;;;;;;1.83;1.10;;;12.50;99.90;;;;;;5003894;28;20025;-75
2023/01/04 09:25:00;;;;;;;4.55;1.50;;;12.60;99.90;;;;;;5006718;28;20037;-76
2023/01/04 09:27:26;;;;;;;2.85;1.23;;;12.50;99.90;;;;;;5014073;28;20021;-77
2023/01/04 09:29:51;;;;;;;5.70;1.30;;;12.60;99.90;;;;;;5006887;28;20022;-74
2023/01/04 09:32:17;;;;;;;1.83;1.50;;;12.60;99.90;;;;;;5002533;28;21071;-73
2023/01/04 09:34:43;;;;;;;1.75;1.33;;;12.60;99.90;;;;;;5008461;28;20443;-72
2023/01/04 09:37:09;;;;;;;2.20;1.50;;;12.50;99.90;;;;;;5006491;28;20030;-72
2023/01/04 09:39:35;;;;;;;4.65;1.80;;;12.50;99.90;;;;;;5006646;28;20025;-74
2023/01/04 09:42:03;;;;;;;4.63;1.83;;;12.60;99.90;;;;;;5007006;28;20460;-74
2023/01/04 09:44:51;;;;;;;4.00;1.30;;;12.50;99.90;;;;;;5009276;28;20041;-74
2023/01/04 09:47:42;;;;;;;2.97;1.23;;;12.50;99.90;;;;;;5003525;28;20092;-74
2023/01/04 09:50:23;;;;;;;2.75;1.63;;;12.50;99.90;;;;;;4969800;28;20034;-74
2023/01/04 09:53:17;;;;;;;4.40;1.80;;;12.60;99.90;;;;;;5007585;28;20475;-73
2023/01/04 09:55:49;;;;;;;3.15;1.80;;;12.60;99.90;;;;;;5009968;28;20030;-73
2023/01/04 09:58:24;;;;;;;4.65;1.55;;;12.70;99.90;;;;;;5006186;28;20035;-73
2023/01/04 10:00:58;;;;;;;8.75;2.00;;;12.60;99.90;;;;;;5015837;28;20028;-73
2023/01/04 10:03:35;;;;;;;3.50;1.92;;;12.50;99.90;;;;;;5005088;28;20030;-74
2023/01/04 10:06:02;;;;;;;3.05;1.80;;;12.60;99.90;;;;;;5013981;28;20057;-73
2023/01/04 10:08:30;;;;;;;5.13;2.05;;;12.60;99.90;;;;;;5004800;28;20028;-72
2023/01/04 10:11:08;;;;;;;9.23;2.50;;;12.70;99.90;;;;;;5014071;28;20029;-74
2023/01/04 10:13:36;;;;;;;5.82;1.88;;;12.70;99.90;;;;;;5010294;28;20044;-72
2023/01/04 10:16:11;;;;;;;5.40;2.63;;;12.60;99.90;;;;;;5012148;28;20097;-72
2023/01/04 10:19:02;;;;;;;6.05;2.83;;;12.70;99.90;;;;;;5012381;28;20017;-72
2023/01/04 10:21:48;;;;;;;5.40;2.60;;;12.60;99.90;;;;;;5012395;28;20029;-72
2023/01/04 10:24:42;;;;;;;6.38;2.80;;;12.60;99.90;;;;;;5015630;28;20056;-72
2023/01/04 10:27:31;;;;;;;9.40;2.75;;;12.70;99.90;;;;;;5008444;28;20356;-74
2023/01/04 10:30:25;;;;;;;4.85;2.60;;;12.70;99.90;;;;;;4994526;28;20022;-71
2023/01/04 10:33:07;;;;;;;5.97;2.83;;;12.80;99.90;;;;;;4984587;28;20044;-69
2023/01/04 10:35:34;;;;;;;9.00;2.70;;;12.70;99.90;;;;;;4993974;28;20033;-70
2023/01/04 10:38:03;;;;;;;5.57;2.88;;;12.80;99.90;;;;;;5014099;28;20054;-71
2023/01/04 10:40:33;;;;;;;5.63;2.38;;;12.80;99.90;;;;;;5010411;28;20021;-72
2023/01/04 10:43:23;;;;;;;7.85;2.70;;;12.80;99.90;;;;;;5010308;28;20124;-71
2023/01/04 10:46:04;;;;;;;5.70;2.20;;;12.70;99.90;;;;;;5010813;28;20034;-72
2023/01/04 10:48:47;;;;;;;6.38;2.45;;;12.80;99.90;;;;;;5009978;28;20149;-71
2023/01/04 10:51:20;;;;;;;5.57;2.58;;;12.80;99.90;;;;;;5011318;28;20053;-74
2023/01/04 10:53:45;;;;;;;;;;;12.80;99.90;;;;;;5011814;28;20029;-74
2023/01/04 10:56:39;;;;;;;3.50;2.22;;;12.80;99.90;;;;;;5014095;28;19919;-73
2023/01/04 10:59:07;;;;;;;5.43;1.58;;;12.90;99.90;;;;;;5014210;28;20029;-74
2023/01/04 11:01:44;;;;;;;8.13;2.03;;;12.80;99.90;;;;;;5005081;28;20051;-74
2023/01/04 11:04:24;;;;;;;7.70;1.70;;;12.80;99.90;;;;;;5013915;28;20045;-73
2023/01/04 11:06:58;;;;;;;6.07;1.90;;;12.90;99.90;;;;;;5016191;28;20075;-72
2023/01/04 11:10:05;;;;;;;5.80;1.90;;;12.80;99.90;;;;;;4996621;28;20033;-73
2023/01/04 11:12:31;;;;;;;4.18;1.60;;;12.80;99.90;;;;;;4927867;29;20027;-72
2023/01/04 11:14:57;;;;;;;4.78;1.45;;;12.90;99.90;;;;;;4926209;29;20475;-71
2023/01/04 11:17:24;;;;;;;2.97;1.50;;;13.00;99.90;;;;;;4967630;28;20037;-73
2023/01/04 11:19:49;;;;;;;3.60;1.60;;;13.00;99.90;;;;;;5013579;28;20060;-72
2023/01/04 11:22:33;;;;;;;2.75;1.17;;;12.90;99.90;;;;;;5007210;28;20034;-73
2023/01/04 11:25:02;;;;;;;3.90;1.75;;;12.90;99.90;;;;;;5008698;28;20077;-73
2023/01/04 11:27:34;;;;;;;4.55;1.38;;;12.90;99.90;;;;;;5010971;28;20022;-72
2023/01/04 11:30:08;;;;;;;3.17;1.40;;;13.00;99.90;;;;;;5010500;28;20120;-75
2023/01/04 11:32:46;;;;;;;1.83;1.15;;;13.00;99.90;;;;;;4993113;28;20029;-74
2023/01/04 11:35:12;;;;;;;13.88;9.63;;;13.00;99.90;;;;;;5009241;28;20036;-75
2023/01/04 11:37:39;;;;;;;4.28;1.55;;;13.00;99.90;;;;;;5005359;28;20486;-75
2023/01/04 11:40:20;;;;;;;5.43;1.50;;;12.90;99.90;;;;;;5012476;28;20022;-75
2023/01/04 11:43:10;;;;;;;2.95;1.50;;;13.00;99.90;;;;;;5004503;28;20545;-75
2023/01/04 11:45:36;;;;;;;2.80;1.10;;;13.00;99.90;;;;;;4997891;28;20073;-74
2023/01/04 11:48:05;;;;;;;2.83;1.35;;;13.00;99.90;;;;;;5013014;28;20449;-75
2023/01/04 11:50:41;;;;;;;2.90;1.52;;;13.00;99.90;;;;;;5008547;28;20128;-75
2023/01/04 11:53:31;;;;;;;3.35;1.17;;;13.00;99.90;;;;;;5008634;28;20034;-74
2023/01/04 11:56:22;;;;;;;1.33;1.23;;;13.00;99.90;;;;;;5004675;28;20040;-75
2023/01/04 11:59:13;;;;;;;2.38;1.40;;;13.10;99.90;;;;;;5012577;28;20502;-76
2023/01/04 12:01:44;;;;;;;3.20;1.45;;;13.00;99.90;;;;;;5015491;28;20101;-76
2023/01/04 12:04:19;;;;;;;4.28;1.40;;;13.00;99.90;;;;;;5009627;28;20025;-75
2023/01/04 12:06:56;;;;;;;3.20;1.05;;;13.00;99.90;;;;;;5012821;28;20049;-75
2023/01/04 12:09:22;;;;;;;2.83;1.48;;;13.00;99.90;;;;;;5009314;28;20036;-75
2023/01/04 12:11:54;;;;;;;2.20;1.40;;;13.00;99.90;;;;;;5011529;28;20033;-75
2023/01/04 12:14:26;;;;;;;4.45;1.50;;;13.10;99.90;;;;;;5010217;28;20739;-76
2023/01/04 12:16:52;;;;;;;1.55;1.30;;;13.10;99.90;;;;;;5010030;28;20501;-75
2023/01/04 12:19:20;;;;;;;1.15;1.00;;;13.10;99.90;;;;;;5009610;28;20127;-75
2023/01/04 12:21:50;;;;;;;3.88;1.60;;;13.10;99.90;;;;;;5008156;28;20037;-74
2023/01/04 12:24:22;;;;;;;3.33;1.38;;;13.10;99.90;;;;;;5013230;28;20060;-75
2023/01/04 12:26:49;;;;;;;4.15;1.52;;;13.10;99.90;;;;;;5013620;28;20040;-75
2023/01/04 12:29:21;;;;;;;2.50;1.50;;;13.20;99.90;;;;;;5011468;28;20038;-75
2023/01/04 12:31:52;;;;;;;2.95;1.80;;;13.10;99.90;;;;;;5010332;28;20040;-75
2023/01/04 12:34:21;;;;;;;4.35;1.40;;;13.20;99.90;;;;;;4980480;28;20148;-74
2023/01/04 12:36:49;;;;;;;2.95;1.52;;;13.10;99.90;;;;;;4988687;28;20029;-73
2023/01/04 12:39:15;;;;;;;2.00;1.40;;;13.20;99.90;;;;;;5002811;28;20029;-73
2023/01/04 12:41:42;;;;;;;3.78;1.45;;;13.10;99.90;;;;;;5007471;28;20029;-72
2023/01/04 12:44:35;;;;;;;2.83;1.60;;;13.20;99.90;;;;;;5003132;28;20085;-72
2023/01/04 12:49:55;;;;;;;1.20;1.10;;;13.20;99.90;;;;;;5015301;28;20032;-72
2023/01/04 12:52:21;;;;;;;4.53;1.90;;;13.20;99.90;;;;;;5012502;28;20020;-73
2023/01/04 12:55:02;;;;;;;3.25;1.77;;;13.20;99.90;;;;;;5004898;28;20029;-73
2023/01/04 12:57:38;;;;;;;2.03;1.50;;;13.30;99.90;;;;;;5012959;28;20500;-72
2023/01/04 13:00:07;;;;;;;4.10;1.33;;;13.20;99.90;;;;;;5010013;28;20413;-73
2023/01/04 13:02:46;;;;;;;3.80;1.60;;;13.20;99.90;;;;;;4990927;28;20024;-73
2023/01/04 13:05:17;;;;;;;5.82;1.85;;;13.20;99.90;;;;;;4989393;28;20406;-73
2023/01/04 13:07:58;;;;;;;4.53;1.60;;;13.20;99.90;;;;;;5014066;28;20033;-74
2023/01/04 13:10:45;;;;;;;4.07;1.50;;;13.30;99.90;;;;;;5003020;28;20022;-75
2023/01/04 13:13:49;;;;;;;5.18;2.42;;;13.30;99.90;;;;;;4989220;28;21994;-74
2023/01/04 13:16:21;;;;;;;1.85;1.75;;;13.40;99.90;;;;;;5011342;28;20042;-74
2023/01/04 13:18:51;;;;;;;1.90;1.67;;;13.30;99.90;;;;;;5007920;28;20385;-74
2023/01/04 13:21:30;;;;;;;2.95;1.88;;;13.40;99.90;;;;;;5009745;28;20245;-74
2023/01/04 13:24:01;;;;;;;1.55;1.45;;;13.40;99.90;;;;;;5007959;28;20033;-78
2023/01/04 13:26:30;;;;;;;2.75;1.60;;;13.40;99.90;;;;;;4995932;28;20029;-74
2023/01/04 13:29:16;;;;;;;2.83;1.27;;;13.40;99.90;;;;;;5005244;28;20022;-75
2023/01/04 13:31:53;;;;;;;2.40;1.50;;;13.30;99.90;;;;;;5009101;28;20048;-75
2023/01/04 13:34:48;;;;;;;5.28;1.75;;;13.40;99.90;;;;;;5005667;28;20034;-74
2023/01/04 13:37:47;;;;;;;2.50;1.30;;;13.40;99.90;;;;;;5010906;28;20436;-74
2023/01/04 13:40:27;;;;;;;1.67;1.30;;;13.40;99.90;;;;;;4963665;28;20033;-75
2023/01/04 13:42:55;;;;;;;2.15;1.35;;;13.40;99.90;;;;;;5004298;28;20034;-75
2023/01/04 13:45:24;;;;;;;4.63;1.60;;;13.50;99.90;;;;;;5008074;28;20054;-76
2023/01/04 13:47:54;;;;;;;2.83;2.15;;;13.40;99.90;;;;;;5013356;28;20037;-75
2023/01/04 13:50:27;;;;;;;3.97;1.80;;;13.50;99.90;;;;;;5004363;28;20037;-75
2023/01/04 13:52:53;;;;;;;1.25;1.17;;;13.60;99.90;;;;;;4989159;28;20018;-75
2023/01/04 13:55:21;;;;;;;2.80;1.95;;;13.40;99.90;;;;;;5010415;28;20356;-75